Time;durP1;ratioP1;P1;durP2;ratioP2;P2;SDS_P1;SDS_P2;PMS_P1;PMS_P2;Temp;Humidity;BMP_temperature;BMP_pressure;BME280_temperature;BME280_humidity;BME280_pressure;Samples;Min_cycle;Max_cycle;Signal;HPM_P1;HPM_P2
2022/03/16 00:02:20;;;;;;;40.33;35.97;;;;;;;5.79;47.85;95895.03;5098594;28;20250;-69
2022/03/16 00:04:47;;;;;;;41.30;36.35;;;;;;;5.73;47.97;95896.22;5098861;28;20188;-69
2022/03/16 00:07:15;;;;;;;43.25;35.30;;;;;;;5.70;48.38;95905.06;5080719;28;20196;-69
2022/03/16 00:09:42;;;;;;;39.30;34.97;;;;;;;5.71;48.48;95900.41;5080528;28;20196;-69
2022/03/16 00:12:10;;;;;;;39.33;34.35;;;;;;;5.68;48.16;95893.59;5098476;28;20195;-70
2022/03/16 00:14:37;;;;;;;36.95;33.15;;;;;;;5.69;48.02;95892.47;5098519;28;20196;-70
2022/03/16 00:17:05;;;;;;;38.10;34.00;;;;;;;5.71;47.05;95897.66;5098033;28;20209;-70
2022/03/16 00:19:32;;;;;;;38.40;33.50;;;;;;;5.73;46.27;95898.16;5080386;28;20200;-69
2022/03/16 00:21:59;;;;;;;38.10;34.00;;;;;;;5.75;47.44;95888.53;5098140;28;20212;-69
2022/03/16 00:24:28;;;;;;;38.40;34.25;;;;;;;5.72;47.96;95875.44;5097885;28;20189;-69
2022/03/16 00:26:55;;;;;;;42.05;35.58;;;;;;;5.66;48.91;95879.38;5080025;28;20636;-69
2022/03/16 00:29:22;;;;;;;41.33;35.45;;;;;;;5.58;48.60;95876.53;5097771;28;20630;-69
2022/03/16 00:31:49;;;;;;;38.08;33.83;;;;;;;5.58;48.38;95879.28;5098115;28;20184;-69
2022/03/16 00:34:16;;;;;;;39.25;35.03;;;;;;;5.57;48.96;95866.72;5097854;28;20181;-69
2022/03/16 00:36:42;;;;;;;41.20;34.63;;;;;;;5.49;49.69;95862.75;5080317;28;20216;-69
2022/03/16 00:39:09;;;;;;;41.47;34.72;;;;;;;5.44;49.56;95857.34;5080232;28;20201;-69
2022/03/16 00:41:38;;;;;;;36.80;32.90;;;;;;;5.47;48.99;95845.81;5097548;28;20196;-68
2022/03/16 00:44:05;;;;;;;38.03;32.83;;;;;;;5.40;48.96;95854.41;5097403;28;20242;-69
2022/03/16 00:46:32;;;;;;;37.20;33.25;;;;;;;5.31;49.44;95839.81;5097864;28;20199;-69
2022/03/16 00:48:59;;;;;;;37.03;32.65;;;;;;;5.26;48.89;95832.50;5080100;28;20196;-69
2022/03/16 00:51:26;;;;;;;37.83;33.30;;;;;;;5.24;49.01;95837.47;5097646;28;20199;-69
2022/03/16 00:53:54;;;;;;;38.17;34.08;;;;;;;5.19;49.48;95823.06;5097400;28;20184;-68
2022/03/16 00:56:21;;;;;;;37.92;33.75;;;;;;;5.16;49.76;95827.22;5097761;28;20517;-68
2022/03/16 00:58:49;;;;;;;37.42;33.42;;;;;;;5.15;49.80;95813.81;5097565;28;20594;-68
2022/03/16 01:01:16;;;;;;;37.88;33.78;;;;;;;5.12;49.28;95812.53;5097492;28;20180;-68
2022/03/16 01:03:43;;;;;;;37.50;33.55;;;;;;;5.10;49.72;95822.94;5079723;28;20184;-68
2022/03/16 01:06:15;;;;;;;36.97;33.05;;;;;;;5.10;49.64;95816.66;5080136;28;20265;-68
2022/03/16 01:08:42;;;;;;;38.42;34.22;;;;;;;5.10;49.83;95811.19;5079780;28;20197;-68
2022/03/16 01:11:08;;;;;;;38.00;33.47;;;;;;;5.11;49.10;95808.16;5097268;28;20188;-68
2022/03/16 01:13:35;;;;;;;38.03;33.90;;;;;;;5.11;48.63;95813.63;5079023;28;20606;-68
2022/03/16 01:16:04;;;;;;;37.97;33.75;;;;;;;5.18;48.74;95811.31;5079971;28;20309;-68
2022/03/16 01:18:31;;;;;;;38.47;32.88;;;;;;;5.23;48.28;95813.16;5079741;28;20558;-68
2022/03/16 01:20:58;;;;;;;38.10;33.55;;;;;;;5.29;49.08;95804.53;5096735;28;20192;-68
2022/03/16 01:23:25;;;;;;;39.58;34.58;;;;;;;5.32;49.57;95790.25;5079299;28;20203;-68
2022/03/16 01:25:51;;;;;;;38.20;34.20;;;;;;;5.24;49.81;95784.69;5079547;28;20211;-69
2022/03/16 01:28:18;;;;;;;39.63;35.33;;;;;;;5.17;50.39;95773.34;5079412;28;20198;-69
2022/03/16 01:30:45;;;;;;;41.80;35.78;;;;;;;5.12;50.28;95778.88;5079288;28;20192;-69
2022/03/16 01:33:13;;;;;;;39.72;35.42;;;;;;;5.11;50.55;95786.28;5079078;28;20206;-69
2022/03/16 01:35:40;;;;;;;40.58;35.33;;;;;;;5.17;48.72;95781.53;5079188;28;20192;-69
2022/03/16 01:38:07;;;;;;;38.47;34.28;;;;;;;5.21;48.20;95777.88;5079103;28;20208;-68
2022/03/16 01:40:35;;;;;;;38.05;33.33;;;;;;;5.24;48.27;95780.03;5096731;28;20192;-69
2022/03/16 01:43:01;;;;;;;37.60;33.50;;;;;;;5.31;49.35;95776.91;5078938;28;20276;-69
2022/03/16 01:45:28;;;;;;;40.13;35.72;;;;;;;5.29;50.26;95762.69;5095812;28;20228;-69
2022/03/16 01:47:55;;;;;;;41.00;36.38;;;;;;;5.18;50.01;95767.56;5078694;28;20196;-69
2022/03/16 01:50:23;;;;;;;42.05;37.42;;;;;;;5.12;50.11;95763.31;5096452;28;20196;-69
2022/03/16 01:52:50;;;;;;;41.38;37.00;;;;;;;5.11;49.71;95769.88;5096211;28;20181;-69
2022/03/16 01:55:17;;;;;;;40.47;35.47;;;;;;;5.07;49.71;95758.72;5078408;28;20193;-69
2022/03/16 01:57:48;;;;;;;39.95;35.78;;;;;;;5.06;50.58;95756.31;5096329;28;20205;-69
2022/03/16 02:00:15;;;;;;;41.53;35.33;;;;;;;5.04;50.73;95751.13;5078880;28;20192;-68
2022/03/16 02:02:42;;;;;;;38.17;33.83;;;;;;;4.99;50.45;95751.22;5096202;28;20211;-68
2022/03/16 02:05:09;;;;;;;37.00;33.10;;;;;;;5.00;51.38;95747.34;5095929;28;20185;-68
2022/03/16 02:07:38;;;;;;;39.20;34.88;;;;;;;4.98;50.31;95746.06;5077992;28;20637;-68
2022/03/16 02:10:06;;;;;;;36.92;33.13;;;;;;;5.10;49.53;95737.38;5087974;28;20212;-68
2022/03/16 02:12:43;;;;;;;38.42;34.33;;;;;;;5.14;49.50;95741.13;5078377;28;20204;-68
2022/03/16 02:15:10;;;;;;;38.83;33.47;;;;;;;5.19;48.89;95739.13;5078296;28;20274;-68
2022/03/16 02:17:37;;;;;;;37.60;33.30;;;;;;;5.19;49.72;95735.53;5078190;28;20216;-68
2022/03/16 02:20:04;;;;;;;35.97;32.13;;;;;;;5.18;49.88;95739.41;5078224;28;20204;-68
2022/03/16 02:22:31;;;;;;;36.42;32.35;;;;;;;5.23;50.37;95731.91;5078277;28;20198;-68
2022/03/16 02:25:01;;;;;;;36.08;32.17;;;;;;;5.22;50.67;95715.78;5095929;28;20181;-68
2022/03/16 02:27:28;;;;;;;36.05;32.15;;;;;;;5.15;50.50;95723.59;5095528;28;20199;-69
2022/03/16 02:29:55;;;;;;;38.45;33.38;;;;;;;5.16;49.93;95725.22;5077731;28;20643;-69
2022/03/16 02:32:22;;;;;;;33.33;29.10;;;;;;;5.22;48.55;95721.25;5077732;28;20203;-69
2022/03/16 02:34:49;;;;;;;33.50;28.60;;;;;;;5.24;47.95;95713.56;5077947;28;20207;-69
2022/03/16 02:37:16;;;;;;;30.15;26.77;;;;;;;5.27;47.96;95715.72;5095604;28;20236;-69
2022/03/16 02:39:42;;;;;;;30.70;27.40;;;;;;;5.30;47.28;95715.09;5077766;28;20207;-69
2022/03/16 02:42:11;;;;;;;32.53;28.92;;;;;;;5.34;47.84;95710.66;5077955;28;20200;-68
2022/03/16 02:44:37;;;;;;;35.47;30.75;;;;;;;5.35;48.93;95712.25;5090722;28;20235;-68
2022/03/16 02:47:05;;;;;;;33.20;29.77;;;;;;;5.27;50.16;95716.53;5098159;28;20196;-68
2022/03/16 02:49:32;;;;;;;33.28;29.67;;;;;;;5.17;50.17;95719.44;5097745;28;20256;-68
2022/03/16 02:51:59;;;;;;;31.48;27.77;;;;;;;5.12;50.59;95722.28;5115817;28;20184;-69
2022/03/16 02:54:25;;;;;;;31.67;27.02;;;;;;;5.05;51.33;95716.41;5098022;28;20195;-68
2022/03/16 02:56:52;;;;;;;29.20;26.13;;;;;;;5.03;51.23;95724.88;5097523;28;20640;-68
2022/03/16 02:59:20;;;;;;;29.15;26.05;;;;;;;4.97;50.80;95709.69;5115701;28;20207;-68
2022/03/16 03:01:47;;;;;;;29.60;26.42;;;;;;;4.96;50.89;95705.34;5098057;28;20195;-68
2022/03/16 03:04:14;;;;;;;28.15;25.20;;;;;;;4.92;50.90;95696.13;5115576;28;20256;-68
2022/03/16 03:06:41;;;;;;;29.58;26.38;;;;;;;4.91;50.88;95699.16;5098067;28;20188;-68
2022/03/16 03:09:07;;;;;;;29.42;26.00;;;;;;;4.93;50.95;95689.53;5115928;28;20172;-68
2022/03/16 03:11:34;;;;;;;30.88;27.67;;;;;;;4.96;50.71;95674.47;5115636;28;20191;-68
2022/03/16 03:14:01;;;;;;;29.90;26.73;;;;;;;4.95;51.09;95689.25;5098054;28;20196;-68
2022/03/16 03:16:30;;;;;;;30.13;26.77;;;;;;;4.93;51.06;95686.81;5097395;28;20203;-69
2022/03/16 03:18:56;;;;;;;30.52;27.33;;;;;;;4.91;51.01;95677.31;5115382;28;20281;-68
2022/03/16 03:21:23;;;;;;;28.27;25.42;;;;;;;4.85;51.11;95686.69;5097623;28;20196;-69
2022/03/16 03:23:50;;;;;;;28.23;25.17;;;;;;;4.83;51.48;95676.88;5097615;28;20201;-68
2022/03/16 03:26:17;;;;;;;27.70;24.90;;;;;;;4.85;51.15;95684.78;5097704;28;20196;-68
2022/03/16 03:28:43;;;;;;;26.60;23.60;;;;;;;4.86;51.24;95686.38;5115390;28;20180;-68
2022/03/16 03:31:10;;;;;;;27.98;25.08;;;;;;;4.88;51.15;95692.38;5097582;28;20191;-68
2022/03/16 03:33:38;;;;;;;25.98;23.40;;;;;;;4.88;50.56;95686.09;5115050;28;20184;-69
2022/03/16 03:36:06;;;;;;;26.13;23.42;;;;;;;4.86;51.17;95680.91;5097912;28;20195;-67
2022/03/16 03:38:32;;;;;;;27.80;24.50;;;;;;;4.91;50.92;95674.56;5097469;28;20223;-68
2022/03/16 03:40:59;;;;;;;28.17;24.27;;;;;;;4.94;50.74;95669.31;5097791;28;20200;-71
2022/03/16 03:43:26;;;;;;;27.10;24.38;;;;;;;4.97;50.78;95678.81;5112206;28;20248;-67
2022/03/16 03:45:53;;;;;;;26.60;23.90;;;;;;;4.97;50.44;95676.06;5094865;28;20269;-68
2022/03/16 03:48:20;;;;;;;26.38;23.58;;;;;;;4.97;50.41;95674.16;5077431;28;20192;-68
2022/03/16 03:50:48;;;;;;;26.00;23.25;;;;;;;5.03;50.36;95667.47;5077162;28;20200;-68
2022/03/16 03:53:15;;;;;;;27.35;24.02;;;;;;;5.06;51.04;95668.81;5094787;28;20254;-68
2022/03/16 03:55:42;;;;;;;28.42;25.15;;;;;;;5.07;51.47;95673.16;5077347;28;20204;-69
2022/03/16 03:58:09;;;;;;;27.67;24.67;;;;;;;5.02;51.15;95673.25;5076733;28;20219;-69
2022/03/16 04:00:35;;;;;;;28.10;24.88;;;;;;;4.99;51.09;95663.72;5094393;28;20606;-68
2022/03/16 04:03:02;;;;;;;26.83;23.92;;;;;;;4.98;51.50;95666.78;5077241;28;20258;-67
2022/03/16 04:05:29;;;;;;;27.77;23.67;;;;;;;4.94;51.42;95668.47;5094716;28;20181;-70
2022/03/16 04:07:58;;;;;;;28.00;23.48;;;;;;;4.90;51.78;95670.19;5076635;28;20200;-67
2022/03/16 04:10:24;;;;;;;28.60;24.27;;;;;;;4.86;51.50;95655.50;5097529;28;20215;-67
2022/03/16 04:12:51;;;;;;;28.15;25.17;;;;;;;4.82;51.80;95671.69;5098448;28;20250;-67
2022/03/16 04:15:20;;;;;;;27.48;24.58;;;;;;;4.77;51.98;95661.69;5098141;28;20181;-67
2022/03/16 04:17:47;;;;;;;30.23;26.95;;;;;;;4.83;51.35;95660.47;5080905;28;20212;-68
2022/03/16 04:20:13;;;;;;;29.80;26.65;;;;;;;4.80;51.59;95652.88;5080840;28;20606;-67
2022/03/16 04:22:40;;;;;;;33.90;27.15;;;;;;;4.78;51.75;95654.28;5080623;28;20192;-68
2022/03/16 04:25:09;;;;;;;28.75;25.73;;;;;;;4.81;51.49;95656.44;5098239;28;20273;-66
2022/03/16 04:27:36;;;;;;;27.42;24.27;;;;;;;4.82;51.17;95647.91;5098134;28;20200;-73
2022/03/16 04:30:04;;;;;;;29.10;25.10;;;;;;;4.87;51.68;95638.03;5079492;28;20434;-66
2022/03/16 04:32:31;;;;;;;27.52;24.60;;;;;;;4.90;51.37;95643.69;5098659;28;20287;-67
2022/03/16 04:34:57;;;;;;;26.70;23.60;;;;;;;4.90;51.24;95630.03;5080438;28;20534;-67
2022/03/16 04:37:24;;;;;;;28.13;23.95;;;;;;;4.94;51.22;95632.94;5097561;28;20177;-67
2022/03/16 04:39:51;;;;;;;28.50;24.55;;;;;;;4.92;50.47;95633.25;5080244;28;20304;-67
2022/03/16 04:42:19;;;;;;;26.55;22.83;;;;;;;4.91;50.09;95628.91;5097811;28;20215;-70
2022/03/16 04:44:46;;;;;;;27.17;23.77;;;;;;;4.90;50.55;95632.75;5097483;28;20236;-68
2022/03/16 04:47:13;;;;;;;27.50;23.45;;;;;;;4.91;50.46;95628.91;5080045;28;20266;-67
2022/03/16 04:49:39;;;;;;;29.30;23.55;;;;;;;4.95;50.20;95618.97;5079918;28;20192;-68
2022/03/16 04:52:07;;;;;;;29.33;23.38;;;;;;;4.99;50.95;95616.44;5097995;28;20549;-67
2022/03/16 04:54:34;;;;;;;32.60;24.30;;;;;;;4.97;51.53;95622.19;5097588;28;20188;-67
2022/03/16 04:57:00;;;;;;;33.00;24.30;;;;;;;5.00;51.52;95620.78;5097333;28;20192;-67
2022/03/16 04:59:28;;;;;;;34.00;24.88;;;;;;;4.97;51.59;95615.94;5079285;28;20216;-67
2022/03/16 05:01:55;;;;;;;32.88;25.55;;;;;;;4.92;52.12;95614.13;5080212;28;20283;-67
2022/03/16 05:04:22;;;;;;;30.83;25.85;;;;;;;4.95;51.53;95608.03;5079664;28;20193;-67
2022/03/16 05:06:49;;;;;;;35.35;27.23;;;;;;;5.01;51.20;95612.31;5079641;28;20196;-67
2022/03/16 05:09:15;;;;;;;30.60;25.95;;;;;;;5.06;50.90;95604.00;5079729;28;20188;-68
2022/03/16 05:11:42;;;;;;;34.22;27.30;;;;;;;5.12;51.58;95604.72;5097153;28;20610;-67
2022/03/16 05:14:10;;;;;;;38.17;27.83;;;;;;;5.14;51.55;95602.47;5097312;28;20303;-67
2022/03/16 05:16:38;;;;;;;32.13;27.55;;;;;;;5.19;51.51;95601.53;5078974;28;20188;-67
2022/03/16 05:19:05;;;;;;;34.13;26.90;;;;;;;5.29;52.19;95590.38;5079369;28;20286;-67
2022/03/16 05:21:32;;;;;;;35.10;27.02;;;;;;;5.29;51.43;95593.13;5096027;28;20185;-67
2022/03/16 05:23:59;;;;;;;35.45;26.75;;;;;;;5.23;51.98;95595.16;5097076;28;20203;-68
2022/03/16 05:26:26;;;;;;;32.38;27.05;;;;;;;5.26;50.64;95593.72;5079535;28;20199;-68
2022/03/16 05:28:53;;;;;;;37.22;28.40;;;;;;;5.30;51.11;95587.38;5097013;28;20192;-68
2022/03/16 05:31:20;;;;;;;42.10;28.85;;;;;;;5.33;51.84;95577.72;5096849;28;20184;-68
2022/03/16 05:33:48;;;;;;;41.03;30.52;;;;;;;5.30;51.19;95570.94;5079088;28;20228;-68
2022/03/16 05:36:15;;;;;;;46.13;33.50;;;;;;;5.30;52.03;95568.22;5097380;28;20180;-68
2022/03/16 05:38:42;;;;;;;57.13;43.88;;;;;;;5.32;52.27;95567.91;5079069;28;20213;-68
2022/03/16 05:41:11;;;;;;;59.53;45.92;;;;;;;5.29;51.60;95566.56;5096763;28;20185;-67
2022/03/16 05:43:37;;;;;;;67.53;48.75;;;;;;;5.30;51.84;95557.28;5096758;28;20320;-67
2022/03/16 05:46:04;;;;;;;46.25;37.15;;;;;;;5.31;51.54;95555.34;5096601;28;20188;-67
2022/03/16 05:48:31;;;;;;;44.67;35.67;;;;;;;5.43;51.09;95541.13;5096504;28;20184;-67
2022/03/16 05:50:59;;;;;;;49.38;36.30;;;;;;;5.46;50.75;95546.78;5096616;28;20191;-67
2022/03/16 05:53:26;;;;;;;43.90;33.55;;;;;;;5.42;49.74;95544.97;5096370;28;20199;-67
2022/03/16 05:55:54;;;;;;;47.85;35.42;;;;;;;5.45;50.19;95545.19;5096430;28;20200;-67
2022/03/16 05:58:22;;;;;;;40.33;30.05;;;;;;;5.45;50.52;95552.59;5096358;28;20201;-67
2022/03/16 06:00:49;;;;;;;32.63;27.65;;;;;;;5.54;50.02;95553.44;5096532;28;20181;-67
2022/03/16 06:03:15;;;;;;;37.83;29.33;;;;;;;5.57;49.64;95554.75;5096292;28;20198;-67
2022/03/16 06:05:42;;;;;;;40.67;35.80;;;;;;;5.59;49.47;95563.47;5096299;28;20196;-67
2022/03/16 06:08:10;;;;;;;43.58;39.03;;;;;;;5.60;49.77;95552.22;5096840;28;20199;-66
2022/03/16 06:10:38;;;;;;;50.13;44.55;;;;;;;5.62;50.54;95554.63;5078417;28;20192;-67
2022/03/16 06:13:06;;;;;;;70.57;62.55;;;;;;;5.65;49.88;95554.81;5096329;28;20216;-67
2022/03/16 06:15:39;;;;;;;91.30;77.13;;;;;;;5.67;50.21;95555.34;5096256;28;20628;-67
2022/03/16 06:18:06;;;;;;;81.65;72.43;;;;;;;5.73;49.40;95551.34;5079079;28;20200;-67
2022/03/16 06:20:35;;;;;;;88.57;75.53;;;;;;;5.71;49.18;95558.25;5096246;28;20180;-67
2022/03/16 06:23:02;;;;;;;82.80;69.95;;;;;;;5.68;49.66;95561.63;5096089;28;20188;-67
2022/03/16 06:25:31;;;;;;;80.28;65.53;;;;;;;5.70;49.62;95559.38;5095997;28;20196;-67
2022/03/16 06:27:57;;;;;;;81.03;72.15;;;;;;;5.70;50.13;95556.63;5095785;28;20275;-67
2022/03/16 06:30:25;;;;;;;77.78;64.43;;;;;;;5.67;49.67;95554.53;5078408;28;20192;-67
2022/03/16 06:32:51;;;;;;;69.97;59.80;;;;;;;5.69;49.93;95560.50;5095552;28;20252;-67
2022/03/16 06:35:18;;;;;;;69.90;57.85;;;;;;;5.66;49.58;95561.91;5078010;28;20266;-67
2022/03/16 06:37:46;;;;;;;53.65;45.72;;;;;;;5.69;50.33;95564.03;5096242;28;20200;-67
2022/03/16 06:40:13;;;;;;;50.33;44.83;;;;;;;5.68;49.90;95567.91;5095481;28;20207;-67
2022/03/16 06:42:48;;;;;;;51.15;44.47;;;;;;;5.67;49.55;95555.34;5096005;28;20192;-67
2022/03/16 06:45:16;;;;;;;49.10;41.15;;;;;;;5.70;48.92;95557.47;5095767;28;20238;-67
2022/03/16 06:47:43;;;;;;;48.10;38.75;;;;;;;5.75;49.63;95564.72;5098261;28;20254;-67
2022/03/16 06:50:10;;;;;;;44.50;39.38;;;;;;;5.72;49.42;95563.41;5098717;28;20195;-66
2022/03/16 06:52:38;;;;;;;55.33;41.95;;;;;;;5.73;50.29;95559.56;5115949;28;20195;-67
2022/03/16 06:55:06;;;;;;;49.53;40.22;;;;;;;5.75;49.97;95565.53;5115880;28;20184;-67
2022/03/16 06:57:33;;;;;;;46.83;40.70;;;;;;;5.78;49.64;95561.38;5115652;28;20191;-67
2022/03/16 07:00:02;;;;;;;51.03;39.17;;;;;;;5.78;50.45;95561.38;5115706;28;20226;-67
2022/03/16 07:02:29;;;;;;;44.50;38.45;;;;;;;5.76;50.22;95556.19;5098261;28;20191;-67
2022/03/16 07:04:55;;;;;;;47.05;36.08;;;;;;;5.76;50.16;95558.94;5097846;28;20187;-67
2022/03/16 07:07:25;;;;;;;47.25;36.90;;;;;;;5.75;50.64;95557.31;5115680;28;20188;-67
2022/03/16 07:09:52;;;;;;;48.70;41.15;;;;;;;5.77;50.65;95549.63;5114653;28;20428;-71
2022/03/16 07:12:18;;;;;;;51.38;39.88;;;;;;;5.78;51.11;95548.50;5115521;28;20196;-69
2022/03/16 07:14:46;;;;;;;51.95;40.03;;;;;;;5.88;51.15;95549.34;5115813;28;20211;-67
2022/03/16 07:17:15;;;;;;;51.70;39.65;;;;;;;5.90;51.62;95547.13;5098026;28;20206;-68
2022/03/16 07:19:41;;;;;;;47.53;38.25;;;;;;;5.92;51.63;95544.88;5115265;28;20204;-67
2022/03/16 07:22:08;;;;;;;48.05;37.38;;;;;;;5.94;51.96;95551.69;5115591;28;20514;-67
2022/03/16 07:24:35;;;;;;;51.53;38.53;;;;;;;5.93;51.23;95557.50;5097763;28;20199;-67
2022/03/16 07:27:05;;;;;;;47.75;38.78;;;;;;;5.90;51.46;95550.66;5115576;28;20180;-67
2022/03/16 07:29:32;;;;;;;61.08;51.72;;;;;;;5.92;50.83;95544.88;5097071;28;20187;-67
2022/03/16 07:31:58;;;;;;;62.13;55.60;;;;;;;5.88;50.41;95552.09;5114532;28;20834;-67
2022/03/16 07:34:27;;;;;;;62.78;53.97;;;;;;;5.87;50.62;95551.28;5115237;28;20196;-67
2022/03/16 07:36:53;;;;;;;63.13;56.20;;;;;;;5.92;51.00;95547.59;5097475;28;20196;-68
2022/03/16 07:39:20;;;;;;;59.53;52.83;;;;;;;6.00;50.60;95542.25;5097573;28;20241;-68
2022/03/16 07:41:48;;;;;;;56.97;50.80;;;;;;;6.01;50.11;95537.56;5115923;28;20172;-68
2022/03/16 07:44:14;;;;;;;57.90;49.95;;;;;;;6.02;50.27;95537.25;5106820;28;20550;-67
2022/03/16 07:46:41;;;;;;;60.90;54.22;;;;;;;6.05;49.90;95538.56;5081627;28;20204;-67
2022/03/16 07:49:08;;;;;;;58.60;52.25;;;;;;;6.11;49.61;95531.03;5081155;28;20191;-66
2022/03/16 07:51:36;;;;;;;60.65;53.22;;;;;;;6.18;49.59;95542.34;5098584;28;20622;-67
2022/03/16 07:54:03;;;;;;;60.92;52.22;;;;;;;6.24;50.18;95533.66;5080967;28;20189;-66
2022/03/16 07:56:30;;;;;;;59.25;52.70;;;;;;;6.29;49.75;95532.75;5080921;28;20191;-66
2022/03/16 07:59:01;;;;;;;63.63;50.55;;;;;;;6.33;49.56;95539.22;5098950;28;20273;-68
2022/03/16 08:01:27;;;;;;;59.17;50.28;;;;;;;6.41;49.17;95532.16;5098640;28;20628;-67
2022/03/16 08:03:54;;;;;;;57.88;49.38;;;;;;;6.46;49.20;95524.63;5081305;28;20641;-68
2022/03/16 08:06:21;;;;;;;57.47;47.13;;;;;;;6.53;49.50;95526.88;5081475;28;20524;-68
2022/03/16 08:08:49;;;;;;;55.17;46.78;;;;;;;6.63;49.31;95531.28;5098910;28;20184;-67
2022/03/16 08:11:16;;;;;;;56.53;47.55;;;;;;;6.68;49.15;95531.97;5080860;28;20219;-67
2022/03/16 08:13:43;;;;;;;57.88;49.83;;;;;;;6.77;48.43;95520.22;5098742;28;20199;-69
2022/03/16 08:16:10;;;;;;;55.13;48.30;;;;;;;6.79;48.60;95531.66;5098362;28;20612;-69
2022/03/16 08:18:37;;;;;;;57.08;48.13;;;;;;;6.82;48.54;95522.81;5080772;28;20204;-68
2022/03/16 08:21:06;;;;;;;55.95;49.30;;;;;;;6.89;48.56;95512.97;5080328;28;20209;-67
2022/03/16 08:23:33;;;;;;;59.88;48.67;;;;;;;6.91;48.60;95502.50;5098607;28;20195;-68
2022/03/16 08:26:02;;;;;;;57.45;49.63;;;;;;;6.95;48.28;95492.53;5080906;28;20208;-67
2022/03/16 08:28:29;;;;;;;59.85;48.15;;;;;;;7.03;48.48;95493.66;5080524;28;20196;-67
2022/03/16 08:30:55;;;;;;;61.20;49.22;;;;;;;7.06;48.22;95490.28;5097798;28;20198;-67
2022/03/16 08:33:23;;;;;;;56.83;43.97;;;;;;;7.08;47.96;95493.53;5098147;28;20177;-67
2022/03/16 08:35:50;;;;;;;50.15;39.92;;;;;;;7.16;47.63;95492.72;5080482;28;20193;-67
2022/03/16 08:38:17;;;;;;;53.50;40.20;;;;;;;7.23;46.78;95498.53;5097876;28;20263;-67
2022/03/16 08:40:44;;;;;;;51.42;39.65;;;;;;;7.28;47.05;95499.50;5097735;28;20273;-66
2022/03/16 08:43:12;;;;;;;42.85;37.25;;;;;;;7.33;46.27;95496.59;5079687;28;20201;-67
2022/03/16 08:45:40;;;;;;;45.88;35.58;;;;;;;7.41;46.49;95498.56;5080399;28;20201;-67
2022/03/16 08:48:07;;;;;;;45.05;34.97;;;;;;;7.48;45.77;95501.63;5097491;28;20191;-67
2022/03/16 08:50:34;;;;;;;39.95;30.13;;;;;;;7.52;45.16;95486.13;5097852;28;20188;-66
2022/03/16 08:53:01;;;;;;;35.70;27.08;;;;;;;7.52;43.98;95486.13;5079566;28;20189;-67
2022/03/16 08:55:28;;;;;;;33.33;28.55;;;;;;;7.59;44.35;95483.72;5079409;28;20192;-67
2022/03/16 08:57:55;;;;;;;32.83;27.52;;;;;;;7.69;43.96;95483.34;5080171;28;20192;-67
2022/03/16 09:00:23;;;;;;;26.23;23.33;;;;;;;7.77;43.75;95480.94;5097718;28;20208;-66
2022/03/16 09:02:50;;;;;;;32.17;23.48;;;;;;;7.84;43.27;95481.25;5079800;28;20207;-66
2022/03/16 09:05:17;;;;;;;33.50;24.40;;;;;;;7.89;43.54;95481.91;5097519;28;20176;-66
2022/03/16 09:07:44;;;;;;;31.30;23.83;;;;;;;7.93;43.28;95482.06;5097136;28;20633;-67
2022/03/16 09:10:11;;;;;;;31.77;24.95;;;;;;;7.94;42.73;95480.91;5097340;28;20203;-67
2022/03/16 09:12:39;;;;;;;33.17;24.17;;;;;;;7.94;42.55;95486.41;5097717;28;20571;-67
2022/03/16 09:15:06;;;;;;;31.95;24.65;;;;;;;7.94;42.95;95484.47;5079568;28;20192;-67
2022/03/16 09:17:35;;;;;;;30.13;24.52;;;;;;;7.96;43.10;95486.91;5079660;28;20201;-67
2022/03/16 09:20:01;;;;;;;36.33;26.95;;;;;;;8.00;43.01;95495.28;5097516;28;20212;-67
2022/03/16 09:22:28;;;;;;;34.47;26.65;;;;;;;8.03;42.52;95492.69;5079987;28;20205;-67
2022/03/16 09:24:56;;;;;;;33.63;26.95;;;;;;;8.05;42.47;95489.63;5079048;28;20492;-68
2022/03/16 09:27:23;;;;;;;33.78;27.52;;;;;;;8.10;42.25;95497.72;5097124;28;20188;-67
2022/03/16 09:29:50;;;;;;;36.15;28.88;;;;;;;8.14;42.69;95493.97;5097067;28;20188;-70
2022/03/16 09:32:18;;;;;;;41.08;34.15;;;;;;;8.18;42.51;95492.19;5078425;28;20433;-68
2022/03/16 09:34:46;;;;;;;45.05;34.40;;;;;;;8.20;41.76;95489.09;5097108;28;20188;-67
2022/03/16 09:37:13;;;;;;;35.25;31.38;;;;;;;8.27;42.76;95489.41;5079232;28;20197;-67
2022/03/16 09:39:40;;;;;;;39.60;32.63;;;;;;;8.38;42.18;95487.94;5096793;28;20216;-67
2022/03/16 09:42:08;;;;;;;37.28;30.98;;;;;;;8.50;42.34;95492.75;5097141;28;20206;-67
2022/03/16 09:44:35;;;;;;;34.38;29.38;;;;;;;8.56;42.11;95491.44;5096600;28;20232;-67
2022/03/16 09:47:02;;;;;;;36.50;30.27;;;;;;;8.54;40.38;95490.16;5097011;28;20196;-67
2022/03/16 09:49:29;;;;;;;36.35;29.75;;;;;;;8.51;41.15;95488.88;5096710;28;20191;-68
2022/03/16 09:51:58;;;;;;;34.00;28.05;;;;;;;8.53;40.64;95486.59;5096975;28;20255;-66
2022/03/16 09:54:25;;;;;;;37.45;28.63;;;;;;;8.57;40.77;95479.31;5096616;28;20540;-67
2022/03/16 09:56:53;;;;;;;35.13;29.10;;;;;;;8.56;40.91;95485.94;5079134;28;20212;-67
2022/03/16 09:59:21;;;;;;;33.35;27.23;;;;;;;8.57;41.11;95487.56;5096016;28;20192;-67
2022/03/16 10:01:47;;;;;;;35.83;29.90;;;;;;;8.57;40.80;95475.72;5096201;28;20197;-67
2022/03/16 10:04:28;;;;;;;38.08;29.63;;;;;;;8.62;40.67;95468.13;5078525;28;20201;-68
2022/03/16 10:15:14;;;;;;;35.83;32.08;;;;;;;8.56;40.15;95465.88;5078594;28;20176;-68
2022/03/16 10:17:45;;;;;;;39.83;34.38;;;;;;;8.56;40.60;95468.63;5096503;28;20267;-68
2022/03/16 10:20:21;;;;;;;38.80;33.92;;;;;;;8.58;40.05;95463.63;5078638;28;20220;-68
2022/03/16 10:22:56;;;;;;;39.60;35.03;;;;;;;8.57;40.52;95465.56;5078451;28;20203;-67
2022/03/16 10:25:23;;;;;;;37.80;32.92;;;;;;;8.54;40.38;95463.47;5095775;28;20180;-67
2022/03/16 10:27:50;;;;;;;41.35;34.70;;;;;;;8.55;40.42;95465.06;5078542;28;20565;-68
2022/03/16 10:30:19;;;;;;;47.53;35.83;;;;;;;8.57;41.02;95468.31;5078276;28;20208;-68
2022/03/16 10:32:53;;;;;;;52.67;43.67;;;;;;;8.62;41.77;95461.81;5078161;28;20508;-67
2022/03/16 10:35:21;;;;;;;54.33;45.20;;;;;;;8.65;41.56;95466.66;5078101;28;20196;-68
2022/03/16 10:37:48;;;;;;;52.17;43.60;;;;;;;8.66;41.65;95463.56;5078208;28;20200;-68
2022/03/16 10:40:20;;;;;;;54.58;43.78;;;;;;;8.66;41.56;95465.50;5095770;28;20200;-69
2022/03/16 10:48:18;;;;;;;47.97;40.97;;;;;;;8.81;41.71;95458.63;5095841;28;20180;-68
2022/03/16 10:50:46;;;;;;;41.90;35.47;;;;;;;8.83;40.85;95462.69;5095562;28;20180;-68
2022/03/16 10:53:15;;;;;;;38.08;31.42;;;;;;;8.82;40.16;95452.81;5095732;28;20177;-67
2022/03/16 10:55:44;;;;;;;45.83;36.20;;;;;;;8.83;42.39;95437.13;5095723;28;20246;-67
2022/03/16 10:58:12;;;;;;;42.80;38.20;;;;;;;8.80;41.89;95432.28;5095584;28;20188;-67
2022/03/16 11:00:39;;;;;;;40.42;36.05;;;;;;;8.82;41.52;95432.75;5095407;28;20222;-67
2022/03/16 11:03:08;;;;;;;38.85;34.60;;;;;;;8.81;41.68;95437.44;5095552;28;20196;-67
2022/03/16 11:05:37;;;;;;;39.88;34.83;;;;;;;8.87;40.84;95429.81;5095531;28;20184;-67
2022/03/16 11:08:07;;;;;;;43.08;35.63;;;;;;;8.87;40.92;95435.31;5095367;28;20216;-67
2022/03/16 11:10:36;;;;;;;44.50;35.50;;;;;;;8.87;41.37;95436.13;5095648;28;20191;-67
2022/03/16 11:15:50;;;;;;;41.83;35.08;;;;;;;9.02;41.35;95411.91;5078356;28;20228;-67
2022/03/16 11:18:18;;;;;;;41.53;32.40;;;;;;;9.05;41.23;95403.78;5094996;28;20209;-67
2022/03/16 11:20:46;;;;;;;35.70;31.52;;;;;;;9.10;41.37;95397.28;5095054;28;20212;-67
2022/03/16 11:26:07;;;;;;;35.28;28.08;;;;;;;9.03;41.08;95386.81;5095197;28;20250;-67
2022/03/16 11:28:47;;;;;;;34.75;27.35;;;;;;;9.15;40.78;95383.34;5096069;28;20250;-67
2022/03/16 11:31:14;;;;;;;34.28;27.00;;;;;;;9.27;41.11;95388.09;5094862;28;20180;-67
2022/03/16 11:33:51;;;;;;;31.33;24.88;;;;;;;9.41;40.37;95388.63;5077661;28;20274;-68
2022/03/16 11:36:31;;;;;;;33.67;27.48;;;;;;;9.53;41.41;95379.59;5095060;28;20192;-68
2022/03/16 11:39:00;;;;;;;30.02;25.60;;;;;;;9.61;40.26;95376.75;5095381;28;20185;-68
2022/03/16 11:41:27;;;;;;;27.63;24.15;;;;;;;9.64;40.11;95367.81;5077087;28;20219;-67
2022/03/16 11:44:01;;;;;;;29.00;23.83;;;;;;;9.78;40.21;95366.72;5096217;28;20228;-67
2022/03/16 11:46:29;;;;;;;26.42;22.77;;;;;;;9.89;40.35;95367.88;5077764;28;20199;-68